Time;durP1;ratioP1;P1;durP2;ratioP2;P2;SDS_P1;SDS_P2;PMS_P1;PMS_P2;Temp;Humidity;BMP_temperature;BMP_pressure;BME280_temperature;BME280_humidity;BME280_pressure;Samples;Min_cycle;Max_cycle;Signal;HPM_P1;HPM_P2
2023/10/28 00:00:45;;;;;;;154.17;25.83;;;;;;;;;;5020214;28;20402;-76
2023/10/28 00:03:16;;;;;;;123.87;22.80;;;;;;;;;;5010289;28;20085;-76
2023/10/28 00:05:42;;;;;;;142.70;24.70;;;;;;;;;;4977370;28;20061;-77
2023/10/28 00:08:09;;;;;;;148.30;23.80;;;;;;;;;;4993639;28;20053;-77
2023/10/28 00:10:36;;;;;;;157.07;24.57;;;;;;;;;;4993700;28;20038;-79
2023/10/28 00:13:04;;;;;;;127.97;22.20;;;;;;;;;;4993874;28;20073;-80
2023/10/28 00:15:32;;;;;;;128.23;23.37;;;;;;;;;;4962738;28;20467;-81
2023/10/28 00:17:57;;;;;;;124.67;20.23;;;;;;;;;;4994489;28;20077;-82
2023/10/28 00:20:23;;;;;;;134.67;22.87;;;;;;;;;;4994730;28;20424;-83
2023/10/28 00:22:53;;;;;;;130.77;22.73;;;;;;;;;;4994092;28;20133;-82
2023/10/28 00:25:28;;;;;;;118.57;22.65;;;;;;;;;;4981877;28;20030;-79
2023/10/28 00:27:55;;;;;;;122.30;21.07;;;;;;;;;;4997339;28;20483;-75
2023/10/28 00:30:25;;;;;;;117.40;21.10;;;;;;;;;;5016036;28;20418;-75
2023/10/28 00:32:54;;;;;;;121.10;20.37;;;;;;;;;;5000527;28;20041;-79
2023/10/28 00:35:21;;;;;;;127.63;23.03;;;;;;;;;;5059731;28;20075;-81
2023/10/28 00:37:50;;;;;;;135.90;22.35;;;;;;;;;;5060696;28;20038;-77
2023/10/28 00:40:17;;;;;;;136.00;24.63;;;;;;;;;;5057890;28;20134;-76
2023/10/28 00:42:46;;;;;;;133.10;23.93;;;;;;;;;;5058620;28;20032;-76
2023/10/28 00:45:13;;;;;;;130.60;22.80;;;;;;;;;;5093359;28;20035;-79
2023/10/28 00:47:41;;;;;;;149.20;24.63;;;;;;;;;;5061169;28;20066;-76
2023/10/28 00:50:29;;;;;;;135.67;22.17;;;;;;;;;;5059710;28;20113;-82
2023/10/28 00:52:58;;;;;;;128.47;21.93;;;;;;;;;;5042119;28;20047;-75
2023/10/28 00:55:29;;;;;;;131.57;22.37;;;;;;;;;;5094192;28;20108;-75
2023/10/28 00:57:55;;;;;;;131.77;21.60;;;;;;;;;;5060795;28;20035;-77
2023/10/28 01:00:21;;;;;;;173.07;22.57;;;;;;;;;;5094541;28;20034;-77
2023/10/28 01:02:48;;;;;;;149.47;21.90;;;;;;;;;;5094366;28;20039;-77
2023/10/28 01:05:19;;;;;;;137.67;21.83;;;;;;;;;;5078060;28;20056;-76
2023/10/28 01:07:46;;;;;;;139.30;22.93;;;;;;;;;;5060718;28;20048;-76
2023/10/28 01:10:12;;;;;;;148.53;22.83;;;;;;;;;;5061264;28;20071;-81
2023/10/28 01:12:38;;;;;;;144.97;22.37;;;;;;;;;;5077497;28;20501;-79
2023/10/28 01:15:07;;;;;;;144.63;24.13;;;;;;;;;;5039845;28;20037;-78
2023/10/28 01:17:35;;;;;;;133.33;21.53;;;;;;;;;;5039526;28;20040;-75
2023/10/28 01:20:00;;;;;;;151.60;22.87;;;;;;;;;;5039235;28;20504;-75
2023/10/28 01:22:27;;;;;;;120.63;18.63;;;;;;;;;;5055924;28;20036;-76
2023/10/28 01:24:54;;;;;;;132.03;22.60;;;;;;;;;;5039493;28;20094;-74
2023/10/28 01:27:21;;;;;;;159.13;23.03;;;;;;;;;;4999510;28;20049;-73
2023/10/28 01:29:49;;;;;;;134.60;21.73;;;;;;;;;;5032102;28;20049;-75
2023/10/28 01:32:19;;;;;;;146.93;22.13;;;;;;;;;;5000080;28;20041;-77
2023/10/28 01:34:48;;;;;;;139.57;22.03;;;;;;;;;;4999428;28;20041;-76
2023/10/28 01:37:16;;;;;;;139.07;23.10;;;;;;;;;;4983107;28;20845;-75
2023/10/28 01:39:43;;;;;;;145.43;23.37;;;;;;;;;;4983620;28;20029;-77
2023/10/28 01:42:13;;;;;;;152.37;22.40;;;;;;;;;;4996119;28;20060;-75
2023/10/28 01:44:39;;;;;;;143.77;22.57;;;;;;;;;;4964343;28;20055;-76
2023/10/28 01:47:09;;;;;;;123.27;22.03;;;;;;;;;;4973762;28;20107;-75
2023/10/28 01:49:35;;;;;;;127.78;21.30;;;;;;;;;;4953808;28;20030;-82
2023/10/28 01:52:09;;;;;;;131.77;21.70;;;;;;;;;;4953325;28;20034;-79
2023/10/28 01:54:36;;;;;;;136.13;22.20;;;;;;;;;;4971561;28;20030;-79
2023/10/28 01:57:09;;;;;;;147.80;23.07;;;;;;;;;;4958609;28;20031;-82
2023/10/28 01:59:37;;;;;;;119.60;21.00;;;;;;;;;;5037879;28;20624;-81
2023/10/28 02:02:04;;;;;;;136.17;23.70;;;;;;;;;;5079101;28;20138;-81
2023/10/28 02:04:36;;;;;;;137.25;24.67;;;;;;;;;;5081749;28;20563;-84
2023/10/28 02:10:04;;;;;;;111.57;21.90;;;;;;;;;;5038020;28;20072;-78
2023/10/28 02:12:34;;;;;;;143.20;24.33;;;;;;;;;;5041109;28;20273;-82
2023/10/28 02:15:06;;;;;;;120.75;21.08;;;;;;;;;;5040007;28;20072;-82
2023/10/28 02:17:38;;;;;;;141.33;25.70;;;;;;;;;;5039125;28;20045;-77
2023/10/28 02:20:28;;;;;;;147.50;23.27;;;;;;;;;;5058014;28;20369;-77
2023/10/28 02:22:55;;;;;;;108.20;20.27;;;;;;;;;;5012202;28;20105;-79
2023/10/28 02:25:23;;;;;;;156.67;22.93;;;;;;;;;;4956497;28;20035;-79
2023/10/28 02:27:51;;;;;;;164.33;22.77;;;;;;;;;;4972572;28;20055;-78
2023/10/28 02:30:20;;;;;;;147.23;23.67;;;;;;;;;;4971607;28;20069;-81
2023/10/28 02:32:51;;;;;;;164.90;24.53;;;;;;;;;;4939759;28;20082;-80
2023/10/28 02:35:18;;;;;;;152.10;26.20;;;;;;;;;;4940585;28;20042;-78
2023/10/28 02:37:46;;;;;;;145.03;25.20;;;;;;;;;;4955434;28;20057;-78
2023/10/28 02:40:17;;;;;;;162.03;26.57;;;;;;;;;;4956459;28;20047;-79
2023/10/28 02:42:49;;;;;;;117.70;24.23;;;;;;;;;;4956714;28;20101;-79
2023/10/28 02:45:25;;;;;;;171.90;26.43;;;;;;;;;;4941358;28;20508;-79
2023/10/28 02:47:50;;;;;;;131.13;25.20;;;;;;;;;;4989778;28;20406;-80
2023/10/28 02:50:19;;;;;;;133.50;24.13;;;;;;;;;;4993375;28;20046;-79
2023/10/28 02:52:47;;;;;;;125.15;24.83;;;;;;;;;;4979623;28;20491;-79
2023/10/28 02:55:17;;;;;;;131.00;23.43;;;;;;;;;;4979612;28;20042;-80
2023/10/28 02:57:49;;;;;;;153.97;23.83;;;;;;;;;;4977549;28;20061;-81
2023/10/28 03:00:22;;;;;;;134.17;23.87;;;;;;;;;;4975872;28;20351;-79
2023/10/28 03:02:52;;;;;;;129.07;22.77;;;;;;;;;;4996711;28;20046;-78
2023/10/28 03:05:20;;;;;;;128.27;22.88;;;;;;;;;;4991470;28;20077;-83
2023/10/28 03:07:47;;;;;;;129.80;22.40;;;;;;;;;;4977403;28;20069;-81
2023/10/28 03:10:15;;;;;;;123.77;22.23;;;;;;;;;;4960430;28;20100;-81
2023/10/28 03:12:43;;;;;;;127.83;23.03;;;;;;;;;;4943553;28;20042;-81
2023/10/28 03:15:10;;;;;;;131.77;24.10;;;;;;;;;;4960189;28;20046;-79
2023/10/28 03:17:37;;;;;;;108.00;22.07;;;;;;;;;;4976442;28;20042;-79
2023/10/28 03:20:05;;;;;;;117.03;22.30;;;;;;;;;;4991791;28;20054;-80
2023/10/28 03:22:31;;;;;;;131.23;24.10;;;;;;;;;;4992930;28;20073;-80
2023/10/28 03:24:58;;;;;;;109.93;20.40;;;;;;;;;;4950568;29;20051;-80
2023/10/28 03:27:26;;;;;;;124.63;22.17;;;;;;;;;;4949182;29;20214;-80
2023/10/28 03:29:52;;;;;;;126.03;22.27;;;;;;;;;;4905733;29;20549;-81
2023/10/28 03:32:18;;;;;;;128.27;22.27;;;;;;;;;;4951393;28;20041;-80
2023/10/28 03:34:45;;;;;;;147.50;24.03;;;;;;;;;;4973878;28;20502;-78
2023/10/28 03:37:11;;;;;;;127.77;21.80;;;;;;;;;;4994804;28;20131;-79
2023/10/28 03:39:38;;;;;;;111.97;19.87;;;;;;;;;;4978707;28;20500;-79
2023/10/28 03:42:07;;;;;;;111.07;21.77;;;;;;;;;;4994102;28;20029;-73
2023/10/28 03:44:34;;;;;;;99.97;19.67;;;;;;;;;;4993961;28;20050;-79
2023/10/28 03:47:01;;;;;;;100.00;20.97;;;;;;;;;;4978598;28;20069;-80
2023/10/28 03:49:28;;;;;;;93.13;19.53;;;;;;;;;;4979247;28;20049;-83
2023/10/28 03:51:55;;;;;;;97.23;20.73;;;;;;;;;;5010708;28;20025;-81
2023/10/28 03:54:22;;;;;;;88.90;19.03;;;;;;;;;;4978127;28;20064;-81
2023/10/28 03:56:47;;;;;;;136.20;22.17;;;;;;;;;;5043344;28;20045;-81
2023/10/28 03:59:14;;;;;;;114.97;20.60;;;;;;;;;;5003039;28;20457;-81
2023/10/28 04:01:40;;;;;;;123.03;20.67;;;;;;;;;;5022155;28;20096;-81
2023/10/28 04:04:07;;;;;;;108.50;21.50;;;;;;;;;;5005687;28;20407;-81
2023/10/28 04:06:32;;;;;;;123.80;21.83;;;;;;;;;;5053881;28;20043;-81
2023/10/28 04:08:59;;;;;;;116.60;21.13;;;;;;;;;;5079172;28;20032;-81
2023/10/28 04:11:25;;;;;;;101.03;20.17;;;;;;;;;;5077677;28;20048;-81
2023/10/28 04:13:52;;;;;;;103.63;20.93;;;;;;;;;;5077670;28;20055;-81
2023/10/28 04:16:18;;;;;;;106.17;20.43;;;;;;;;;;5094244;28;20459;-81
2023/10/28 04:18:44;;;;;;;103.47;20.80;;;;;;;;;;5042268;28;20544;-80
2023/10/28 04:21:10;;;;;;;88.23;20.47;;;;;;;;;;5040709;28;20102;-80
2023/10/28 04:23:36;;;;;;;117.27;21.43;;;;;;;;;;5023935;28;20419;-80
2023/10/28 04:26:03;;;;;;;109.07;22.00;;;;;;;;;;5057278;28;20040;-77
2023/10/28 04:28:31;;;;;;;116.13;21.47;;;;;;;;;;5057189;28;20052;-74
2023/10/28 04:30:59;;;;;;;112.03;21.50;;;;;;;;;;5056531;28;20048;-74
2023/10/28 04:33:26;;;;;;;96.50;20.30;;;;;;;;;;5060839;28;20375;-74
2023/10/28 04:35:54;;;;;;;97.40;21.10;;;;;;;;;;5058223;28;20039;-75
2023/10/28 04:38:20;;;;;;;139.97;22.47;;;;;;;;;;4999815;28;20041;-74
2023/10/28 04:40:46;;;;;;;170.87;24.33;;;;;;;;;;4983727;28;20049;-74
2023/10/28 04:43:13;;;;;;;142.10;23.63;;;;;;;;;;4983479;28;20041;-74
2023/10/28 04:45:42;;;;;;;122.13;22.43;;;;;;;;;;5019465;28;20598;-73
2023/10/28 04:48:09;;;;;;;131.97;23.07;;;;;;;;;;5036003;28;20506;-75
2023/10/28 04:50:34;;;;;;;130.00;23.70;;;;;;;;;;5035713;28;20550;-74
2023/10/28 04:53:01;;;;;;;154.80;22.87;;;;;;;;;;5022994;28;20143;-73
2023/10/28 04:55:26;;;;;;;117.60;23.00;;;;;;;;;;5055838;28;20475;-74
2023/10/28 04:57:54;;;;;;;109.33;21.30;;;;;;;;;;5030491;28;20033;-73
2023/10/28 05:00:22;;;;;;;135.07;23.67;;;;;;;;;;5047185;28;20036;-75
2023/10/28 05:02:48;;;;;;;105.67;21.10;;;;;;;;;;5031240;28;20028;-78
2023/10/28 05:05:14;;;;;;;117.63;20.57;;;;;;;;;;5052946;28;20060;-81
2023/10/28 05:07:41;;;;;;;112.53;20.67;;;;;;;;;;5053643;28;20522;-80
2023/10/28 05:10:09;;;;;;;94.20;19.07;;;;;;;;;;5085499;28;20434;-81
2023/10/28 05:12:35;;;;;;;104.53;20.43;;;;;;;;;;5078013;28;20046;-82
2023/10/28 05:15:02;;;;;;;128.87;22.43;;;;;;;;;;5078042;28;20073;-76
2023/10/28 05:17:31;;;;;;;112.27;21.23;;;;;;;;;;5078159;28;20486;-83
2023/10/28 05:20:01;;;;;;;98.97;20.00;;;;;;;;;;5078899;28;20079;-80
2023/10/28 05:22:30;;;;;;;102.43;18.97;;;;;;;;;;5069987;28;20040;-79
2023/10/28 05:24:55;;;;;;;113.07;20.37;;;;;;;;;;5087167;28;20028;-80
2023/10/28 05:27:24;;;;;;;114.23;21.33;;;;;;;;;;5107497;28;20040;-79
2023/10/28 05:29:50;;;;;;;79.20;18.03;;;;;;;;;;5074747;28;20028;-80
2023/10/28 05:32:16;;;;;;;75.33;17.37;;;;;;;;;;5087907;28;20046;-79
2023/10/28 05:34:41;;;;;;;106.37;18.80;;;;;;;;;;5081012;28;20024;-78
2023/10/28 05:37:08;;;;;;;94.23;17.90;;;;;;;;;;5064323;28;20044;-77
2023/10/28 05:39:33;;;;;;;76.50;15.10;;;;;;;;;;5062899;28;20040;-78
2023/10/28 05:42:16;;;;;;;86.67;17.23;;;;;;;;;;5077842;28;20135;-79
2023/10/28 05:44:47;;;;;;;96.20;17.07;;;;;;;;;;5093965;28;20131;-78
2023/10/28 05:47:17;;;;;;;80.43;15.67;;;;;;;;;;5076147;28;21544;-78
2023/10/28 05:49:45;;;;;;;93.73;15.13;;;;;;;;;;5059280;28;20048;-73
2023/10/28 05:52:18;;;;;;;84.10;15.37;;;;;;;;;;5026085;28;20040;-73
2023/10/28 05:54:45;;;;;;;79.73;15.37;;;;;;;;;;5058528;28;20040;-76
2023/10/28 05:57:12;;;;;;;78.37;15.10;;;;;;;;;;5031755;28;20049;-75
2023/10/28 05:59:39;;;;;;;78.30;16.07;;;;;;;;;;5015824;28;20144;-75
2023/10/28 06:02:05;;;;;;;66.53;15.70;;;;;;;;;;4998881;28;20503;-71
2023/10/28 06:04:31;;;;;;;71.97;14.53;;;;;;;;;;4998443;28;20060;-69
2023/10/28 06:06:59;;;;;;;70.77;15.40;;;;;;;;;;4998853;28;20037;-72
2023/10/28 06:09:24;;;;;;;75.27;15.93;;;;;;;;;;5015747;28;20136;-70
2023/10/28 06:11:50;;;;;;;67.57;13.70;;;;;;;;;;4998754;28;20140;-71
2023/10/28 06:14:18;;;;;;;79.73;15.40;;;;;;;;;;5014880;28;20069;-69
2023/10/28 06:16:46;;;;;;;67.73;15.97;;;;;;;;;;5014844;28;20037;-75
2023/10/28 06:19:11;;;;;;;77.23;17.83;;;;;;;;;;4998407;28;20041;-75
2023/10/28 06:21:39;;;;;;;62.73;16.83;;;;;;;;;;4998237;28;20041;-75
2023/10/28 06:24:07;;;;;;;64.43;16.73;;;;;;;;;;5016918;28;20048;-74
2023/10/28 06:26:45;;;;;;;53.07;14.43;;;;;;;;;;5017544;28;20137;-76
2023/10/28 06:29:12;;;;;;;63.00;15.73;;;;;;;;;;5034111;28;20071;-73
2023/10/28 06:31:50;;;;;;;55.10;15.70;;;;;;;;;;5040059;28;20077;-77
2023/10/28 06:34:19;;;;;;;54.87;16.87;;;;;;;;;;5034818;28;20052;-78
2023/10/28 06:37:16;;;;;;;51.80;15.57;;;;;;;;;;5072690;28;20497;-78
2023/10/28 06:39:47;;;;;;;49.77;15.00;;;;;;;;;;5064957;28;20048;-76
2023/10/28 06:42:13;;;;;;;52.13;16.03;;;;;;;;;;5094911;28;20043;-77
2023/10/28 06:44:43;;;;;;;53.40;13.90;;;;;;;;;;5092846;28;20119;-76
2023/10/28 06:47:10;;;;;;;48.60;13.20;;;;;;;;;;5075458;28;20032;-80
2023/10/28 06:49:38;;;;;;;55.53;16.17;;;;;;;;;;5059020;28;20100;-76
2023/10/28 06:52:08;;;;;;;56.20;16.17;;;;;;;;;;5034547;28;20040;-75
2023/10/28 06:54:34;;;;;;;57.50;16.80;;;;;;;;;;5034013;28;20049;-79
2023/10/28 06:57:00;;;;;;;50.83;15.77;;;;;;;;;;5017293;28;20041;-73
2023/10/28 06:59:26;;;;;;;42.33;15.17;;;;;;;;;;5034789;28;20051;-75
2023/10/28 07:01:52;;;;;;;50.97;15.60;;;;;;;;;;5050681;28;20063;-71
2023/10/28 07:04:18;;;;;;;47.17;15.57;;;;;;;;;;5050684;28;20123;-75
2023/10/28 07:06:44;;;;;;;47.20;14.57;;;;;;;;;;4997705;28;20496;-74
2023/10/28 07:09:11;;;;;;;53.60;15.87;;;;;;;;;;5030886;28;20049;-71
2023/10/28 07:11:39;;;;;;;52.20;17.57;;;;;;;;;;5013510;28;20041;-76
2023/10/28 07:14:08;;;;;;;47.57;18.07;;;;;;;;;;4974864;28;20050;-72
2023/10/28 07:16:41;;;;;;;45.63;17.57;;;;;;;;;;4974887;28;20046;-73
2023/10/28 07:19:09;;;;;;;38.37;14.50;;;;;;;;;;4972504;28;20046;-74
2023/10/28 07:21:35;;;;;;;53.73;15.13;;;;;;;;;;4956790;28;20142;-73
2023/10/28 07:24:03;;;;;;;32.27;12.23;;;;;;;;;;4927821;28;20146;-75
2023/10/28 07:26:42;;;;;;;36.50;12.97;;;;;;;;;;4958463;28;20038;-74
2023/10/28 07:29:08;;;;;;;25.60;12.07;;;;;;;;;;4955754;28;20062;-72
2023/10/28 07:31:38;;;;;;;31.60;12.10;;;;;;;;;;4955892;28;20444;-70
2023/10/28 07:34:05;;;;;;;37.57;12.80;;;;;;;;;;4975932;28;20083;-73
2023/10/28 07:36:32;;;;;;;41.97;12.53;;;;;;;;;;4975448;28;20741;-75
2023/10/28 07:39:01;;;;;;;35.77;11.17;;;;;;;;;;4977464;28;20134;-76
2023/10/28 07:41:30;;;;;;;23.13;10.43;;;;;;;;;;4954193;28;20701;-74
2023/10/28 07:44:00;;;;;;;19.23;9.80;;;;;;;;;;4972964;28;20042;-75
2023/10/28 07:46:39;;;;;;;27.13;10.87;;;;;;;;;;5010029;28;20088;-75
2023/10/28 07:49:07;;;;;;;23.40;9.83;;;;;;;;;;4963514;28;20077;-76
2023/10/28 07:51:35;;;;;;;31.60;10.53;;;;;;;;;;4997513;28;20136;-73
2023/10/28 07:54:03;;;;;;;27.43;9.83;;;;;;;;;;5010258;28;20042;-74
2023/10/28 07:56:31;;;;;;;27.13;9.90;;;;;;;;;;4994026;28;20057;-75
2023/10/28 07:59:07;;;;;;;25.80;10.10;;;;;;;;;;4998348;28;20045;-75
2023/10/28 08:01:33;;;;;;;19.70;9.20;;;;;;;;;;5011879;28;20494;-75
2023/10/28 08:03:59;;;;;;;20.30;9.47;;;;;;;;;;4979792;28;20475;-75
2023/10/28 08:06:25;;;;;;;16.87;8.80;;;;;;;;;;5036231;28;20145;-75
2023/10/28 08:08:54;;;;;;;16.77;9.33;;;;;;;;;;5020592;28;20071;-74
2023/10/28 08:11:24;;;;;;;16.57;9.17;;;;;;;;;;5021447;28;20507;-75
2023/10/28 08:13:52;;;;;;;16.80;8.90;;;;;;;;;;5058176;28;20040;-74
2023/10/28 08:16:20;;;;;;;15.20;8.63;;;;;;;;;;5075190;28;20419;-74
2023/10/28 08:18:48;;;;;;;17.13;8.20;;;;;;;;;;5090567;28;20375;-73
2023/10/28 08:21:14;;;;;;;13.23;7.70;;;;;;;;;;5057354;28;20036;-72
2023/10/28 08:23:41;;;;;;;17.63;8.73;;;;;;;;;;5073603;28;20040;-70
2023/10/28 08:26:10;;;;;;;14.10;8.53;;;;;;;;;;5056852;28;20059;-70
2023/10/28 08:28:37;;;;;;;12.60;8.27;;;;;;;;;;5056511;28;21018;-70
2023/10/28 08:31:07;;;;;;;19.43;8.77;;;;;;;;;;5056385;28;20122;-70
2023/10/28 08:33:36;;;;;;;17.25;8.70;;;;;;;;;;5073177;28;20096;-70
2023/10/28 08:36:02;;;;;;;19.05;9.35;;;;;;;;;;5056119;28;20402;-69
2023/10/28 08:38:28;;;;;;;16.23;8.77;;;;;;;;;;5073206;28;20040;-70
2023/10/28 08:40:54;;;;;;;19.30;9.07;;;;;;;;;;5056293;28;20036;-70
2023/10/28 08:43:20;;;;;;;14.75;7.18;;;;;;;;;;5056447;28;20120;-71
2023/10/28 08:45:47;;;;;;;22.80;8.80;;;;;;;;;;5043072;28;20039;-71
2023/10/28 08:48:14;;;;;;;19.73;8.53;;;;;;;;;;5060262;28;20071;-71
2023/10/28 08:50:45;;;;;;;20.23;9.30;;;;;;;;;;5059057;28;20050;-71
2023/10/28 08:53:11;;;;;;;;;;;;;;;;;;5078433;28;20046;-71
2023/10/28 08:55:38;;;;;;;8.03;4.43;;;;;;;;;;5061243;28;19912;-71
2023/10/28 08:58:06;;;;;;;15.97;7.53;;;;;;;;;;5060682;28;20039;-71
2023/10/28 09:00:35;;;;;;;20.00;8.93;;;;;;;;;;5060956;28;20031;-71
2023/10/28 09:03:07;;;;;;;19.85;8.93;;;;;;;;;;5094705;28;20039;-71
2023/10/28 09:05:45;;;;;;;17.67;8.30;;;;;;;;;;5077781;28;20052;-71
2023/10/28 09:08:13;;;;;;;21.57;9.43;;;;;;;;;;5057127;28;20064;-71
2023/10/28 09:10:41;;;;;;;18.87;8.13;;;;;;;;;;5023813;28;20060;-71
2023/10/28 09:13:09;;;;;;;18.77;8.60;;;;;;;;;;5023126;28;20075;-72
2023/10/28 09:15:37;;;;;;;18.40;8.53;;;;;;;;;;5023673;28;20072;-72
2023/10/28 09:18:03;;;;;;;22.77;9.87;;;;;;;;;;5039619;28;20032;-72
2023/10/28 09:20:29;;;;;;;25.20;11.53;;;;;;;;;;5023070;28;20048;-71
2023/10/28 09:22:55;;;;;;;33.53;13.13;;;;;;;;;;5022926;28;20133;-70
2023/10/28 09:25:21;;;;;;;24.10;10.00;;;;;;;;;;5023055;28;20063;-70
2023/10/28 09:27:48;;;;;;;22.37;10.17;;;;;;;;;;5040076;28;20082;-71
2023/10/28 09:30:21;;;;;;;32.83;10.40;;;;;;;;;;5056292;28;20054;-71
2023/10/28 09:32:52;;;;;;;28.27;11.27;;;;;;;;;;5039362;28;20048;-70
2023/10/28 09:35:19;;;;;;;31.33;12.85;;;;;;;;;;5023364;28;20032;-70
2023/10/28 09:37:44;;;;;;;36.87;15.13;;;;;;;;;;5023471;28;20032;-71
2023/10/28 09:40:12;;;;;;;44.27;12.00;;;;;;;;;;5055871;28;20438;-71
2023/10/28 09:42:39;;;;;;;35.40;12.40;;;;;;;;;;5039130;28;20060;-71
2023/10/28 09:45:09;;;;;;;38.70;11.20;;;;;;;;;;5048299;28;20040;-71
2023/10/28 09:47:47;;;;;;;35.43;14.00;;;;;;;;;;5060138;28;20109;-71
2023/10/28 09:50:14;;;;;;;42.00;12.50;;;;;;;;;;5094392;28;20068;-71
2023/10/28 09:52:45;;;;;;;37.97;15.33;;;;;;;;;;5060455;28;20093;-71
2023/10/28 09:55:11;;;;;;;;;;;;;;;;;;5060165;28;20059;-71
2023/10/28 09:57:38;;;;;;;26.20;11.50;;;;;;;;;;5058670;28;19947;-71
2023/10/28 10:00:09;;;;;;;30.37;12.00;;;;;;;;;;5059397;28;20051;-71
2023/10/28 10:02:48;;;;;;;34.83;11.83;;;;;;;;;;5092807;28;20038;-71
2023/10/28 10:05:17;;;;;;;32.77;13.00;;;;;;;;;;5059771;28;20060;-71
2023/10/28 10:07:44;;;;;;;34.50;15.00;;;;;;;;;;5076651;28;20432;-71
2023/10/28 10:10:13;;;;;;;51.20;20.13;;;;;;;;;;5054977;28;20048;-71
2023/10/28 10:12:40;;;;;;;37.87;17.20;;;;;;;;;;5038225;28;20032;-71
2023/10/28 10:15:08;;;;;;;46.00;19.23;;;;;;;;;;5021512;28;20536;-71
2023/10/28 10:17:35;;;;;;;42.93;17.90;;;;;;;;;;5021392;28;20079;-71
2023/10/28 10:20:04;;;;;;;49.47;19.40;;;;;;;;;;5021680;28;20048;-70
2023/10/28 10:22:33;;;;;;;;;;;;;;;;;;4941005;28;20042;-71
2023/10/28 10:24:59;;;;;;;37.20;16.63;;;;;;;;;;4940553;28;20011;-71
2023/10/28 10:27:40;;;;;;;52.67;19.67;;;;;;;;;;4924976;28;20051;-70
2023/10/28 10:30:06;;;;;;;40.13;17.13;;;;;;;;;;4940869;28;20105;-71
2023/10/28 10:32:47;;;;;;;34.13;14.90;;;;;;;;;;4933895;29;20055;-71
2023/10/28 10:35:26;;;;;;;41.80;16.23;;;;;;;;;;4886926;29;20518;-71
2023/10/28 10:38:05;;;;;;;32.00;12.43;;;;;;;;;;4902513;29;20062;-70
2023/10/28 10:40:32;;;;;;;32.20;14.37;;;;;;;;;;4896643;28;20082;-70
2023/10/28 10:43:06;;;;;;;39.20;15.17;;;;;;;;;;4924445;28;20047;-70
2023/10/28 10:45:32;;;;;;;36.67;15.30;;;;;;;;;;4924411;28;20039;-70
2023/10/28 10:48:21;;;;;;;47.33;21.08;;;;;;;;;;4940487;28;20055;-70
2023/10/28 10:50:47;;;;;;;41.03;15.53;;;;;;;;;;4936553;28;20121;-71
2023/10/28 10:53:13;;;;;;;27.57;11.93;;;;;;;;;;4992323;28;20501;-70
2023/10/28 10:55:53;;;;;;;26.65;9.52;;;;;;;;;;5021127;28;20036;-70
2023/10/28 10:58:20;;;;;;;27.80;12.38;;;;;;;;;;5070911;28;20055;-70
2023/10/28 11:00:51;;;;;;;26.53;10.90;;;;;;;;;;5033873;28;20541;-70
2023/10/28 11:03:16;;;;;;;14.52;7.57;;;;;;;;;;5049890;28;20047;-71
2023/10/28 11:05:43;;;;;;;16.70;7.53;;;;;;;;;;5040619;28;20048;-71
2023/10/28 11:08:09;;;;;;;10.57;4.95;;;;;;;;;;5040136;28;20039;-71
2023/10/28 11:10:36;;;;;;;20.23;7.85;;;;;;;;;;5041198;28;20138;-71
2023/10/28 11:13:04;;;;;;;9.83;5.00;;;;;;;;;;5074011;28;20558;-70
2023/10/28 11:15:32;;;;;;;7.43;4.33;;;;;;;;;;5074007;28;20045;-70
2023/10/28 11:17:58;;;;;;;19.45;8.73;;;;;;;;;;5040473;28;20470;-70
2023/10/28 11:20:24;;;;;;;17.07;7.13;;;;;;;;;;5040732;28;20036;-71
2023/10/28 11:22:51;;;;;;;11.80;5.67;;;;;;;;;;5073944;28;20040;-71
2023/10/28 11:25:20;;;;;;;15.93;6.90;;;;;;;;;;5057184;28;20093;-71
2023/10/28 11:27:51;;;;;;;19.50;8.67;;;;;;;;;;5040425;28;20134;-71
2023/10/28 11:30:18;;;;;;;12.33;5.83;;;;;;;;;;5040632;28;20093;-70
2023/10/28 11:32:44;;;;;;;20.00;8.80;;;;;;;;;;5040325;28;20044;-70
2023/10/28 11:35:12;;;;;;;14.73;6.73;;;;;;;;;;5056976;28;20096;-71
2023/10/28 11:37:41;;;;;;;12.77;6.40;;;;;;;;;;5076720;28;20101;-70
2023/10/28 11:40:09;;;;;;;17.47;6.77;;;;;;;;;;5036957;28;20048;-71
2023/10/28 11:42:37;;;;;;;9.93;5.23;;;;;;;;;;5020337;28;20052;-70
2023/10/28 11:45:06;;;;;;;10.95;6.82;;;;;;;;;;5033578;28;20063;-70
2023/10/28 11:47:33;;;;;;;19.00;8.60;;;;;;;;;;5016814;28;20057;-70
2023/10/28 11:49:59;;;;;;;13.33;5.20;;;;;;;;;;5033518;28;20440;-70
2023/10/28 11:52:24;;;;;;;10.10;5.10;;;;;;;;;;5016892;28;20221;-70
2023/10/28 11:54:50;;;;;;;6.97;4.03;;;;;;;;;;5033187;28;20449;-70
2023/10/28 11:57:20;;;;;;;6.63;3.63;;;;;;;;;;5033468;28;20045;-70
2023/10/28 11:59:47;;;;;;;16.07;6.60;;;;;;;;;;5017661;28;20057;-70
2023/10/28 12:02:13;;;;;;;7.87;4.27;;;;;;;;;;5017447;28;20041;-70
2023/10/28 12:04:39;;;;;;;6.83;3.77;;;;;;;;;;4994021;28;20488;-70
2023/10/28 12:07:05;;;;;;;7.77;4.60;;;;;;;;;;4993676;28;20038;-70
2023/10/28 12:09:35;;;;;;;5.50;3.67;;;;;;;;;;4977553;28;20038;-70
2023/10/28 12:12:03;;;;;;;14.83;3.87;;;;;;;;;;5028710;28;20040;-70
2023/10/28 12:14:29;;;;;;;5.87;3.50;;;;;;;;;;5000530;28;20541;-70
2023/10/28 12:16:55;;;;;;;3.67;3.17;;;;;;;;;;5000463;28;20143;-70
2023/10/28 12:19:21;;;;;;;8.97;3.23;;;;;;;;;;5001114;28;20143;-70
2023/10/28 12:21:50;;;;;;;3.63;2.90;;;;;;;;;;5009304;28;20074;-70
2023/10/28 12:24:19;;;;;;;5.90;3.10;;;;;;;;;;5040444;28;20040;-70
2023/10/28 12:26:45;;;;;;;8.43;3.10;;;;;;;;;;5057319;28;20036;-70
2023/10/28 12:29:12;;;;;;;5.63;3.30;;;;;;;;;;5023437;28;20047;-70
2023/10/28 12:31:38;;;;;;;4.00;2.80;;;;;;;;;;5073592;28;20033;-70
2023/10/28 12:34:04;;;;;;;5.23;3.00;;;;;;;;;;5024226;28;20447;-70
2023/10/28 12:36:31;;;;;;;4.47;3.40;;;;;;;;;;5072704;28;20059;-70
2023/10/28 12:38:58;;;;;;;5.93;3.33;;;;;;;;;;5062176;28;20070;-70
2023/10/28 12:41:24;;;;;;;4.97;3.27;;;;;;;;;;5061177;28;20055;-70
2023/10/28 12:43:50;;;;;;;5.80;3.80;;;;;;;;;;5059794;28;20079;-69
2023/10/28 12:46:16;;;;;;;5.70;3.60;;;;;;;;;;5060085;28;20050;-70
2023/10/28 12:48:43;;;;;;;6.00;3.87;;;;;;;;;;5059791;28;20052;-69
2023/10/28 12:51:08;;;;;;;5.50;3.50;;;;;;;;;;5076534;28;20119;-70
2023/10/28 12:53:35;;;;;;;4.40;2.93;;;;;;;;;;5043615;28;20044;-70
2023/10/28 12:56:02;;;;;;;6.20;3.07;;;;;;;;;;5060908;28;20063;-70
2023/10/28 12:58:29;;;;;;;4.30;3.03;;;;;;;;;;5061188;28;20055;-70
2023/10/28 13:00:55;;;;;;;6.33;3.00;;;;;;;;;;5060975;28;20047;-70
2023/10/28 13:03:21;;;;;;;3.83;2.60;;;;;;;;;;5043918;28;20040;-70
2023/10/28 13:05:47;;;;;;;5.03;3.13;;;;;;;;;;5077399;28;20060;-69
2023/10/28 13:08:14;;;;;;;4.17;3.10;;;;;;;;;;5077010;28;20052;-69
2023/10/28 13:10:40;;;;;;;5.67;3.20;;;;;;;;;;5043031;28;20036;-69
2023/10/28 13:13:06;;;;;;;4.27;2.47;;;;;;;;;;5016417;28;20041;-70
2023/10/28 13:15:36;;;;;;;3.10;2.30;;;;;;;;;;4999722;28;20040;-70
2023/10/28 13:18:02;;;;;;;3.23;2.70;;;;;;;;;;5019851;28;20441;-70
2023/10/28 13:20:27;;;;;;;5.00;2.63;;;;;;;;;;5019862;28;20037;-70
2023/10/28 13:22:53;;;;;;;3.43;2.60;;;;;;;;;;5019798;28;20057;-70
2023/10/28 13:25:19;;;;;;;3.77;2.37;;;;;;;;;;5019900;28;20075;-70
2023/10/28 13:27:46;;;;;;;3.43;2.60;;;;;;;;;;5019918;28;20060;-70
2023/10/28 13:30:12;;;;;;;3.50;2.70;;;;;;;;;;5019359;28;20063;-70
2023/10/28 13:32:38;;;;;;;3.17;2.47;;;;;;;;;;5019820;28;20483;-70
2023/10/28 13:35:08;;;;;;;3.57;2.90;;;;;;;;;;5035885;28;20041;-71
2023/10/28 13:37:35;;;;;;;3.83;2.63;;;;;;;;;;5019408;28;20048;-70
2023/10/28 13:40:00;;;;;;;6.03;2.97;;;;;;;;;;5036209;28;20045;-71
2023/10/28 13:42:26;;;;;;;4.33;3.30;;;;;;;;;;5019176;28;20061;-71
2023/10/28 13:44:53;;;;;;;4.83;3.40;;;;;;;;;;5066596;28;20534;-71
2023/10/28 13:47:18;;;;;;;4.47;3.30;;;;;;;;;;5077112;28;20039;-71
2023/10/28 13:49:45;;;;;;;6.63;3.80;;;;;;;;;;5077330;28;20474;-70
2023/10/28 13:52:11;;;;;;;4.00;3.20;;;;;;;;;;5093961;28;20043;-70
2023/10/28 13:54:37;;;;;;;4.43;3.50;;;;;;;;;;5077350;28;20035;-70
2023/10/28 13:57:03;;;;;;;5.17;3.70;;;;;;;;;;5077549;28;20040;-70
2023/10/28 13:59:29;;;;;;;6.53;3.10;;;;;;;;;;5060497;28;20489;-70
2023/10/28 14:01:55;;;;;;;5.63;3.73;;;;;;;;;;5059586;28;20032;-70
2023/10/28 14:04:21;;;;;;;6.67;4.53;;;;;;;;;;5059834;28;20035;-71
2023/10/28 14:06:47;;;;;;;6.87;4.47;;;;;;;;;;5059593;28;20048;-71
2023/10/28 14:09:14;;;;;;;6.30;3.77;;;;;;;;;;5059723;28;20040;-71
2023/10/28 14:11:40;;;;;;;4.60;3.40;;;;;;;;;;5035006;28;20053;-71
2023/10/28 14:14:10;;;;;;;5.80;3.00;;;;;;;;;;5051750;28;20477;-70
2023/10/28 14:16:37;;;;;;;6.17;3.30;;;;;;;;;;5018773;28;20049;-70
2023/10/28 14:19:05;;;;;;;4.30;3.23;;;;;;;;;;5019004;28;20029;-70
2023/10/28 14:21:31;;;;;;;4.60;3.13;;;;;;;;;;5035462;28;20106;-71
2023/10/28 14:23:57;;;;;;;5.93;3.47;;;;;;;;;;5018736;28;20033;-70
2023/10/28 14:26:23;;;;;;;4.70;3.13;;;;;;;;;;5018610;28;20091;-71
2023/10/28 14:28:50;;;;;;;5.10;3.83;;;;;;;;;;5034895;28;20517;-70